sensor_id;sensor_type;location;lat;lon;timestamp;P1;durP1;ratioP1;P2;durP2;ratioP2
61373;SDS011;47242;48.158;-1.586;2023-06-24T04:30:47;6.57;;;3.25;;
61373;SDS011;47242;48.158;-1.586;2023-06-24T04:33:13;6.65;;;3.47;;
61373;SDS011;47242;48.158;-1.586;2023-06-24T04:35:38;5.80;;;3.20;;
61373;SDS011;47242;48.158;-1.586;2023-06-24T04:38:04;5.90;;;3.22;;
61373;SDS011;47242;48.158;-1.586;2023-06-24T04:40:30;7.20;;;3.53;;
61373;SDS011;47242;48.158;-1.586;2023-06-24T04:42:55;6.60;;;3.28;;
61373;SDS011;47242;48.158;-1.586;2023-06-24T04:45:21;7.72;;;4.03;;
61373;SDS011;47242;48.158;-1.586;2023-06-24T04:47:47;6.82;;;3.47;;
61373;SDS011;47242;48.158;-1.586;2023-06-24T04:50:12;6.60;;;3.63;;
61373;SDS011;47242;48.158;-1.586;2023-06-24T04:52:38;7.20;;;3.03;;
61373;SDS011;47242;48.158;-1.586;2023-06-24T04:55:04;7.18;;;3.20;;
61373;SDS011;47242;48.158;-1.586;2023-06-24T04:57:31;7.80;;;3.25;;
61373;SDS011;47242;48.158;-1.586;2023-06-24T04:59:58;7.25;;;3.30;;
61373;SDS011;47242;48.158;-1.586;2023-06-24T05:02:23;5.32;;;3.03;;
61373;SDS011;47242;48.158;-1.586;2023-06-24T05:04:51;5.78;;;3.28;;
61373;SDS011;47242;48.158;-1.586;2023-06-24T05:07:17;6.88;;;3.35;;
61373;SDS011;47242;48.158;-1.586;2023-06-24T05:09:43;7.68;;;3.35;;
61373;SDS011;47242;48.158;-1.586;2023-06-24T05:12:11;6.13;;;3.40;;
61373;SDS011;47242;48.158;-1.586;2023-06-24T05:14:37;7.50;;;3.90;;
61373;SDS011;47242;48.158;-1.586;2023-06-24T05:17:03;7.22;;;3.42;;
61373;SDS011;47242;48.158;-1.586;2023-06-24T05:19:29;8.50;;;4.20;;
61373;SDS011;47242;48.158;-1.586;2023-06-24T05:21:55;6.90;;;3.35;;
61373;SDS011;47242;48.158;-1.586;2023-06-24T05:24:20;6.38;;;3.17;;
61373;SDS011;47242;48.158;-1.586;2023-06-24T05:26:48;6.03;;;3.33;;
61373;SDS011;47242;48.158;-1.586;2023-06-24T05:29:15;6.07;;;2.95;;
61373;SDS011;47242;48.158;-1.586;2023-06-24T05:31:42;6.95;;;3.40;;
61373;SDS011;47242;48.158;-1.586;2023-06-24T05:34:08;8.15;;;3.47;;
61373;SDS011;47242;48.158;-1.586;2023-06-24T05:36:33;7.38;;;3.40;;
61373;SDS011;47242;48.158;-1.586;2023-06-24T05:38:59;9.07;;;3.47;;
61373;SDS011;47242;48.158;-1.586;2023-06-24T05:41:25;6.60;;;3.75;;
61373;SDS011;47242;48.158;-1.586;2023-06-24T05:44:00;8.57;;;3.67;;
61373;SDS011;47242;48.158;-1.586;2023-06-24T05:46:30;5.72;;;3.17;;
61373;SDS011;47242;48.158;-1.586;2023-06-24T05:48:56;6.00;;;3.10;;
61373;SDS011;47242;48.158;-1.586;2023-06-24T05:51:21;7.97;;;3.50;;
61373;SDS011;47242;48.158;-1.586;2023-06-24T05:53:47;7.10;;;3.60;;
61373;SDS011;47242;48.158;-1.586;2023-06-24T05:56:13;6.35;;;3.47;;
61373;SDS011;47242;48.158;-1.586;2023-06-24T05:58:38;7.50;;;3.53;;
61373;SDS011;47242;48.158;-1.586;2023-06-24T06:01:04;6.80;;;3.40;;
61373;SDS011;47242;48.158;-1.586;2023-06-24T06:03:30;7.53;;;3.03;;
61373;SDS011;47242;48.158;-1.586;2023-06-24T06:05:56;6.53;;;3.28;;
61373;SDS011;47242;48.158;-1.586;2023-06-24T06:08:22;5.53;;;3.10;;
61373;SDS011;47242;48.158;-1.586;2023-06-24T06:10:47;9.45;;;4.05;;
61373;SDS011;47242;48.158;-1.586;2023-06-24T06:13:13;7.65;;;3.20;;
61373;SDS011;47242;48.158;-1.586;2023-06-24T06:15:39;6.55;;;3.20;;
61373;SDS011;47242;48.158;-1.586;2023-06-24T06:18:04;7.70;;;3.45;;
61373;SDS011;47242;48.158;-1.586;2023-06-24T06:20:30;7.55;;;3.58;;
61373;SDS011;47242;48.158;-1.586;2023-06-24T06:22:55;6.80;;;3.22;;
61373;SDS011;47242;48.158;-1.586;2023-06-24T06:25:21;7.40;;;3.35;;
61373;SDS011;47242;48.158;-1.586;2023-06-24T06:27:48;6.15;;;3.33;;
61373;SDS011;47242;48.158;-1.586;2023-06-24T06:30:13;5.95;;;3.50;;
61373;SDS011;47242;48.158;-1.586;2023-06-24T06:32:39;8.32;;;3.60;;
61373;SDS011;47242;48.158;-1.586;2023-06-24T06:35:05;8.40;;;4.22;;
61373;SDS011;47242;48.158;-1.586;2023-06-24T06:37:31;7.82;;;3.28;;
61373;SDS011;47242;48.158;-1.586;2023-06-24T06:39:57;5.65;;;3.13;;
61373;SDS011;47242;48.158;-1.586;2023-06-24T06:42:22;5.25;;;3.20;;
61373;SDS011;47242;48.158;-1.586;2023-06-24T06:44:48;6.35;;;3.67;;
61373;SDS011;47242;48.158;-1.586;2023-06-24T06:47:14;5.97;;;2.75;;
61373;SDS011;47242;48.158;-1.586;2023-06-24T06:49:39;6.32;;;3.13;;
61373;SDS011;47242;48.158;-1.586;2023-06-24T06:52:05;6.22;;;3.45;;
61373;SDS011;47242;48.158;-1.586;2023-06-24T06:54:31;7.60;;;3.33;;
61373;SDS011;47242;48.158;-1.586;2023-06-24T06:57:03;7.55;;;3.45;;
61373;SDS011;47242;48.158;-1.586;2023-06-24T06:59:30;6.70;;;3.40;;
61373;SDS011;47242;48.158;-1.586;2023-06-24T07:01:56;7.20;;;3.25;;
61373;SDS011;47242;48.158;-1.586;2023-06-24T07:04:21;7.43;;;3.38;;
61373;SDS011;47242;48.158;-1.586;2023-06-24T07:06:47;8.80;;;3.78;;
61373;SDS011;47242;48.158;-1.586;2023-06-24T07:09:13;6.78;;;3.20;;
61373;SDS011;47242;48.158;-1.586;2023-06-24T07:11:40;6.75;;;2.97;;
61373;SDS011;47242;48.158;-1.586;2023-06-24T07:14:06;6.15;;;3.45;;
61373;SDS011;47242;48.158;-1.586;2023-06-24T07:16:31;6.68;;;3.65;;
61373;SDS011;47242;48.158;-1.586;2023-06-24T07:18:57;6.68;;;3.20;;
61373;SDS011;47242;48.158;-1.586;2023-06-24T07:21:23;5.85;;;3.25;;
61373;SDS011;47242;48.158;-1.586;2023-06-24T07:23:49;6.78;;;3.33;;
61373;SDS011;47242;48.158;-1.586;2023-06-24T07:26:14;8.15;;;3.35;;
61373;SDS011;47242;48.158;-1.586;2023-06-24T07:28:40;6.90;;;3.75;;
61373;SDS011;47242;48.158;-1.586;2023-06-24T07:31:05;6.18;;;3.60;;
61373;SDS011;47242;48.158;-1.586;2023-06-24T07:33:31;7.15;;;3.45;;
61373;SDS011;47242;48.158;-1.586;2023-06-24T07:35:57;6.72;;;3.35;;
61373;SDS011;47242;48.158;-1.586;2023-06-24T07:38:23;5.82;;;3.40;;
61373;SDS011;47242;48.158;-1.586;2023-06-24T07:40:48;6.35;;;3.90;;
61373;SDS011;47242;48.158;-1.586;2023-06-24T07:43:14;7.32;;;3.60;;
61373;SDS011;47242;48.158;-1.586;2023-06-24T07:45:40;6.55;;;2.95;;
61373;SDS011;47242;48.158;-1.586;2023-06-24T07:48:05;8.82;;;3.95;;
61373;SDS011;47242;48.158;-1.586;2023-06-24T07:50:32;7.80;;;4.15;;
61373;SDS011;47242;48.158;-1.586;2023-06-24T07:52:59;5.72;;;3.97;;
61373;SDS011;47242;48.158;-1.586;2023-06-24T07:55:24;5.80;;;3.58;;
61373;SDS011;47242;48.158;-1.586;2023-06-24T07:57:50;6.22;;;3.97;;
61373;SDS011;47242;48.158;-1.586;2023-06-24T08:00:16;5.68;;;3.95;;
61373;SDS011;47242;48.158;-1.586;2023-06-24T08:02:42;5.22;;;3.90;;
61373;SDS011;47242;48.158;-1.586;2023-06-24T08:05:08;6.15;;;4.22;;
61373;SDS011;47242;48.158;-1.586;2023-06-24T08:07:34;6.63;;;4.32;;
61373;SDS011;47242;48.158;-1.586;2023-06-24T08:10:00;5.53;;;4.25;;
61373;SDS011;47242;48.158;-1.586;2023-06-24T08:12:26;5.80;;;4.18;;
61373;SDS011;47242;48.158;-1.586;2023-06-24T08:14:52;5.47;;;4.55;;
61373;SDS011;47242;48.158;-1.586;2023-06-24T08:17:17;4.75;;;4.25;;
61373;SDS011;47242;48.158;-1.586;2023-06-24T08:19:43;9.48;;;5.13;;
61373;SDS011;47242;48.158;-1.586;2023-06-24T08:22:08;5.63;;;4.22;;
61373;SDS011;47242;48.158;-1.586;2023-06-24T08:24:34;6.22;;;4.68;;
61373;SDS011;47242;48.158;-1.586;2023-06-24T08:27:01;5.15;;;4.55;;
61373;SDS011;47242;48.158;-1.586;2023-06-24T08:29:26;5.82;;;4.47;;
61373;SDS011;47242;48.158;-1.586;2023-06-24T08:31:52;6.90;;;4.45;;
61373;SDS011;47242;48.158;-1.586;2023-06-24T08:34:18;5.20;;;4.53;;
61373;SDS011;47242;48.158;-1.586;2023-06-24T08:36:43;5.75;;;4.05;;
61373;SDS011;47242;48.158;-1.586;2023-06-24T08:39:09;4.60;;;3.95;;
61373;SDS011;47242;48.158;-1.586;2023-06-24T08:41:35;4.70;;;4.18;;
61373;SDS011;47242;48.158;-1.586;2023-06-24T08:44:00;4.65;;;4.03;;
61373;SDS011;47242;48.158;-1.586;2023-06-24T08:46:26;6.32;;;3.95;;
61373;SDS011;47242;48.158;-1.586;2023-06-24T08:49:36;4.45;;;4.05;;
61373;SDS011;47242;48.158;-1.586;2023-06-24T08:51:49;5.15;;;3.55;;
61373;SDS011;47242;48.158;-1.586;2023-06-24T08:54:19;4.38;;;3.75;;
61373;SDS011;47242;48.158;-1.586;2023-06-24T08:56:46;4.55;;;3.60;;
61373;SDS011;47242;48.158;-1.586;2023-06-24T08:59:12;4.22;;;3.80;;
61373;SDS011;47242;48.158;-1.586;2023-06-24T09:01:37;4.75;;;3.88;;
61373;SDS011;47242;48.158;-1.586;2023-06-24T09:04:04;4.35;;;3.80;;
61373;SDS011;47242;48.158;-1.586;2023-06-24T09:06:30;6.57;;;3.60;;
61373;SDS011;47242;48.158;-1.586;2023-06-24T09:08:57;5.38;;;3.97;;
61373;SDS011;47242;48.158;-1.586;2023-06-24T09:11:26;4.15;;;3.75;;
61373;SDS011;47242;48.158;-1.586;2023-06-24T09:13:59;4.43;;;3.85;;
61373;SDS011;47242;48.158;-1.586;2023-06-24T09:16:25;4.30;;;3.90;;
61373;SDS011;47242;48.158;-1.586;2023-06-24T09:18:52;5.13;;;3.70;;
61373;SDS011;47242;48.158;-1.586;2023-06-24T09:21:28;5.55;;;3.90;;
61373;SDS011;47242;48.158;-1.586;2023-06-24T09:23:56;5.55;;;3.53;;
61373;SDS011;47242;48.158;-1.586;2023-06-24T09:26:23;4.72;;;3.97;;
61373;SDS011;47242;48.158;-1.586;2023-06-24T09:28:50;3.88;;;3.47;;
61373;SDS011;47242;48.158;-1.586;2023-06-24T09:31:16;9.88;;;9.18;;
61373;SDS011;47242;48.158;-1.586;2023-06-24T09:33:42;6.20;;;4.28;;
61373;SDS011;47242;48.158;-1.586;2023-06-24T09:36:12;4.78;;;4.28;;
61373;SDS011;47242;48.158;-1.586;2023-06-24T09:41:06;4.90;;;4.30;;
61373;SDS011;47242;48.158;-1.586;2023-06-24T09:43:36;5.45;;;3.75;;
61373;SDS011;47242;48.158;-1.586;2023-06-24T09:46:04;5.63;;;5.13;;
61373;SDS011;47242;48.158;-1.586;2023-06-24T09:48:30;4.18;;;3.78;;
61373;SDS011;47242;48.158;-1.586;2023-06-24T09:50:59;4.22;;;3.83;;
61373;SDS011;47242;48.158;-1.586;2023-06-24T09:53:32;4.30;;;3.80;;
61373;SDS011;47242;48.158;-1.586;2023-06-24T09:55:59;4.10;;;3.60;;
61373;SDS011;47242;48.158;-1.586;2023-06-24T09:58:28;4.47;;;4.00;;
61373;SDS011;47242;48.158;-1.586;2023-06-24T10:01:01;4.20;;;3.80;;
61373;SDS011;47242;48.158;-1.586;2023-06-24T10:03:33;4.05;;;3.63;;
61373;SDS011;47242;48.158;-1.586;2023-06-24T10:06:01;4.10;;;3.70;;
61373;SDS011;47242;48.158;-1.586;2023-06-24T10:08:30;4.03;;;3.10;;
61373;SDS011;47242;48.158;-1.586;2023-06-24T10:10:56;3.95;;;3.50;;
61373;SDS011;47242;48.158;-1.586;2023-06-24T10:13:23;4.88;;;3.17;;
61373;SDS011;47242;48.158;-1.586;2023-06-24T10:15:50;4.60;;;3.20;;
61373;SDS011;47242;48.158;-1.586;2023-06-24T10:20:57;5.00;;;3.60;;
61373;SDS011;47242;48.158;-1.586;2023-06-24T10:23:29;4.57;;;3.70;;
61373;SDS011;47242;48.158;-1.586;2023-06-24T10:26:08;4.93;;;3.53;;
61373;SDS011;47242;48.158;-1.586;2023-06-24T10:36:52;5.43;;;3.28;;
61373;SDS011;47242;48.158;-1.586;2023-06-24T10:39:39;3.85;;;2.78;;
61373;SDS011;47242;48.158;-1.586;2023-06-24T10:44:55;4.05;;;2.50;;
61373;SDS011;47242;48.158;-1.586;2023-06-24T10:47:26;4.37;;;2.83;;
61373;SDS011;47242;48.158;-1.586;2023-06-24T10:49:52;4.65;;;2.80;;
61373;SDS011;47242;48.158;-1.586;2023-06-24T10:52:19;4.40;;;2.78;;
61373;SDS011;47242;48.158;-1.586;2023-06-24T10:54:46;4.25;;;2.53;;
61373;SDS011;47242;48.158;-1.586;2023-06-24T10:57:12;5.60;;;2.70;;
61373;SDS011;47242;48.158;-1.586;2023-06-24T10:59:41;4.82;;;2.60;;
61373;SDS011;47242;48.158;-1.586;2023-06-24T11:02:17;5.40;;;3.05;;
61373;SDS011;47242;48.158;-1.586;2023-06-24T11:07:24;4.78;;;2.58;;
61373;SDS011;47242;48.158;-1.586;2023-06-24T11:09:55;4.50;;;2.70;;
61373;SDS011;47242;48.158;-1.586;2023-06-24T11:14:50;4.22;;;2.90;;
61373;SDS011;47242;48.158;-1.586;2023-06-24T11:17:16;6.68;;;3.85;;
61373;SDS011;47242;48.158;-1.586;2023-06-24T11:19:41;4.93;;;2.80;;
61373;SDS011;47242;48.158;-1.586;2023-06-24T11:22:08;5.93;;;2.63;;
61373;SDS011;47242;48.158;-1.586;2023-06-24T11:24:34;4.88;;;3.00;;
61373;SDS011;47242;48.158;-1.586;2023-06-24T11:27:01;4.10;;;2.60;;
61373;SDS011;47242;48.158;-1.586;2023-06-24T11:29:30;4.03;;;2.55;;
61373;SDS011;47242;48.158;-1.586;2023-06-24T11:31:57;4.78;;;2.28;;
61373;SDS011;47242;48.158;-1.586;2023-06-24T11:34:23;4.97;;;2.72;;
61373;SDS011;47242;48.158;-1.586;2023-06-24T11:36:49;4.35;;;2.67;;
61373;SDS011;47242;48.158;-1.586;2023-06-24T11:39:24;3.90;;;2.40;;
61373;SDS011;47242;48.158;-1.586;2023-06-24T11:41:51;5.82;;;2.45;;
61373;SDS011;47242;48.158;-1.586;2023-06-24T11:44:21;4.55;;;2.60;;
61373;SDS011;47242;48.158;-1.586;2023-06-24T11:46:48;4.80;;;2.70;;
61373;SDS011;47242;48.158;-1.586;2023-06-24T11:49:14;4.47;;;2.45;;
61373;SDS011;47242;48.158;-1.586;2023-06-24T11:51:47;4.80;;;2.50;;
61373;SDS011;47242;48.158;-1.586;2023-06-24T11:54:14;4.22;;;2.60;;
61373;SDS011;47242;48.158;-1.586;2023-06-24T11:56:41;5.15;;;2.50;;
61373;SDS011;47242;48.158;-1.586;2023-06-24T11:59:21;4.28;;;2.53;;
61373;SDS011;47242;48.158;-1.586;2023-06-24T12:01:56;4.70;;;2.78;;
61373;SDS011;47242;48.158;-1.586;2023-06-24T12:04:32;4.22;;;2.80;;
61373;SDS011;47242;48.158;-1.586;2023-06-24T12:06:59;4.55;;;2.50;;
61373;SDS011;47242;48.158;-1.586;2023-06-24T12:09:25;4.72;;;2.60;;
61373;SDS011;47242;48.158;-1.586;2023-06-24T12:11:51;4.63;;;2.17;;
61373;SDS011;47242;48.158;-1.586;2023-06-24T12:14:17;3.95;;;2.47;;
61373;SDS011;47242;48.158;-1.586;2023-06-24T12:16:43;4.18;;;2.30;;
61373;SDS011;47242;48.158;-1.586;2023-06-24T12:19:09;4.13;;;2.45;;
61373;SDS011;47242;48.158;-1.586;2023-06-24T12:21:35;4.40;;;2.40;;
61373;SDS011;47242;48.158;-1.586;2023-06-24T12:24:01;4.32;;;2.35;;
61373;SDS011;47242;48.158;-1.586;2023-06-24T12:26:27;5.47;;;2.67;;
61373;SDS011;47242;48.158;-1.586;2023-06-24T12:28:56;4.88;;;2.67;;
61373;SDS011;47242;48.158;-1.586;2023-06-24T12:31:22;4.82;;;2.55;;
61373;SDS011;47242;48.158;-1.586;2023-06-24T12:33:48;4.97;;;2.85;;
61373;SDS011;47242;48.158;-1.586;2023-06-24T12:36:15;6.28;;;2.78;;
61373;SDS011;47242;48.158;-1.586;2023-06-24T12:38:40;4.38;;;2.67;;
61373;SDS011;47242;48.158;-1.586;2023-06-24T12:41:06;5.72;;;2.60;;
61373;SDS011;47242;48.158;-1.586;2023-06-24T12:43:32;5.03;;;2.60;;
61373;SDS011;47242;48.158;-1.586;2023-06-24T12:45:58;4.28;;;2.78;;
61373;SDS011;47242;48.158;-1.586;2023-06-24T12:48:23;4.32;;;2.45;;
61373;SDS011;47242;48.158;-1.586;2023-06-24T12:50:49;6.55;;;2.88;;
61373;SDS011;47242;48.158;-1.586;2023-06-24T12:53:18;4.50;;;2.10;;
61373;SDS011;47242;48.158;-1.586;2023-06-24T12:55:44;5.65;;;2.58;;
61373;SDS011;47242;48.158;-1.586;2023-06-24T12:58:10;4.15;;;2.50;;
61373;SDS011;47242;48.158;-1.586;2023-06-24T13:00:35;4.43;;;2.40;;
61373;SDS011;47242;48.158;-1.586;2023-06-24T13:03:01;4.88;;;2.80;;
61373;SDS011;47242;48.158;-1.586;2023-06-24T13:05:27;4.50;;;2.78;;
61373;SDS011;47242;48.158;-1.586;2023-06-24T13:07:52;4.63;;;2.63;;
61373;SDS011;47242;48.158;-1.586;2023-06-24T13:10:18;4.32;;;2.80;;
61373;SDS011;47242;48.158;-1.586;2023-06-24T13:12:43;5.82;;;2.72;;
61373;SDS011;47242;48.158;-1.586;2023-06-24T13:15:09;4.40;;;2.53;;
61373;SDS011;47242;48.158;-1.586;2023-06-24T13:17:35;4.93;;;2.42;;
61373;SDS011;47242;48.158;-1.586;2023-06-24T13:20:01;4.60;;;2.50;;
61373;SDS011;47242;48.158;-1.586;2023-06-24T13:22:29;4.28;;;2.85;;
61373;SDS011;47242;48.158;-1.586;2023-06-24T13:24:55;4.93;;;2.60;;
61373;SDS011;47242;48.158;-1.586;2023-06-24T13:27:21;4.30;;;2.63;;
61373;SDS011;47242;48.158;-1.586;2023-06-24T13:29:46;4.20;;;2.63;;
61373;SDS011;47242;48.158;-1.586;2023-06-24T13:32:12;5.10;;;2.42;;
61373;SDS011;47242;48.158;-1.586;2023-06-24T13:34:38;5.18;;;2.70;;
61373;SDS011;47242;48.158;-1.586;2023-06-24T13:37:04;3.72;;;2.20;;
61373;SDS011;47242;48.158;-1.586;2023-06-24T13:39:30;4.53;;;2.45;;
61373;SDS011;47242;48.158;-1.586;2023-06-24T13:41:56;5.15;;;2.45;;
61373;SDS011;47242;48.158;-1.586;2023-06-24T13:44:22;6.57;;;2.67;;
61373;SDS011;47242;48.158;-1.586;2023-06-24T13:46:48;4.25;;;2.42;;
61373;SDS011;47242;48.158;-1.586;2023-06-24T13:49:15;4.18;;;2.40;;
61373;SDS011;47242;48.158;-1.586;2023-06-24T13:51:41;4.43;;;2.50;;
61373;SDS011;47242;48.158;-1.586;2023-06-24T13:54:07;4.22;;;2.15;;
61373;SDS011;47242;48.158;-1.586;2023-06-24T13:56:33;4.10;;;2.22;;
61373;SDS011;47242;48.158;-1.586;2023-06-24T13:58:58;5.13;;;2.45;;
61373;SDS011;47242;48.158;-1.586;2023-06-24T14:01:24;4.95;;;2.63;;
61373;SDS011;47242;48.158;-1.586;2023-06-24T14:03:53;4.93;;;2.63;;
61373;SDS011;47242;48.158;-1.586;2023-06-24T14:06:20;4.47;;;2.83;;
61373;SDS011;47242;48.158;-1.586;2023-06-24T14:08:46;4.40;;;2.45;;
61373;SDS011;47242;48.158;-1.586;2023-06-24T14:11:13;4.20;;;2.40;;
61373;SDS011;47242;48.158;-1.586;2023-06-24T14:13:39;3.80;;;2.38;;
61373;SDS011;47242;48.158;-1.586;2023-06-24T14:16:06;4.32;;;2.67;;
61373;SDS011;47242;48.158;-1.586;2023-06-24T14:18:32;4.40;;;2.58;;
61373;SDS011;47242;48.158;-1.586;2023-06-24T14:20:58;4.85;;;2.40;;
61373;SDS011;47242;48.158;-1.586;2023-06-24T14:23:25;4.32;;;2.22;;
61373;SDS011;47242;48.158;-1.586;2023-06-24T14:25:51;4.75;;;2.65;;
61373;SDS011;47242;48.158;-1.586;2023-06-24T14:28:17;4.57;;;2.30;;
61373;SDS011;47242;48.158;-1.586;2023-06-24T14:30:43;4.65;;;2.53;;
61373;SDS011;47242;48.158;-1.586;2023-06-24T14:33:11;4.25;;;2.47;;
61373;SDS011;47242;48.158;-1.586;2023-06-24T14:35:37;5.50;;;2.90;;
61373;SDS011;47242;48.158;-1.586;2023-06-24T14:38:03;4.25;;;2.20;;
61373;SDS011;47242;48.158;-1.586;2023-06-24T14:40:28;4.40;;;2.60;;
61373;SDS011;47242;48.158;-1.586;2023-06-24T14:42:54;4.65;;;2.53;;
61373;SDS011;47242;48.158;-1.586;2023-06-24T14:45:20;4.15;;;2.50;;
61373;SDS011;47242;48.158;-1.586;2023-06-24T14:47:45;4.55;;;2.88;;
61373;SDS011;47242;48.158;-1.586;2023-06-24T14:50:11;4.30;;;2.55;;
61373;SDS011;47242;48.158;-1.586;2023-06-24T14:52:37;5.13;;;2.58;;
61373;SDS011;47242;48.158;-1.586;2023-06-24T14:55:02;3.40;;;2.20;;
61373;SDS011;47242;48.158;-1.586;2023-06-24T14:57:28;4.00;;;2.40;;
61373;SDS011;47242;48.158;-1.586;2023-06-24T14:59:54;4.10;;;2.45;;
61373;SDS011;47242;48.158;-1.586;2023-06-24T15:02:19;5.28;;;2.50;;
61373;SDS011;47242;48.158;-1.586;2023-06-24T15:04:45;4.63;;;2.33;;
61373;SDS011;47242;48.158;-1.586;2023-06-24T15:07:11;4.68;;;2.65;;
61373;SDS011;47242;48.158;-1.586;2023-06-24T15:09:36;4.85;;;2.60;;
61373;SDS011;47242;48.158;-1.586;2023-06-24T15:12:02;4.05;;;2.38;;
61373;SDS011;47242;48.158;-1.586;2023-06-24T15:14:28;3.78;;;2.13;;
61373;SDS011;47242;48.158;-1.586;2023-06-24T15:16:53;4.30;;;2.70;;
61373;SDS011;47242;48.158;-1.586;2023-06-24T15:19:22;4.80;;;2.53;;
61373;SDS011;47242;48.158;-1.586;2023-06-24T15:21:48;4.32;;;2.47;;
61373;SDS011;47242;48.158;-1.586;2023-06-24T15:24:14;4.28;;;2.45;;
61373;SDS011;47242;48.158;-1.586;2023-06-24T15:26:39;4.22;;;2.35;;
61373;SDS011;47242;48.158;-1.586;2023-06-24T15:29:05;4.00;;;2.20;;
61373;SDS011;47242;48.158;-1.586;2023-06-24T15:31:30;4.30;;;2.50;;
61373;SDS011;47242;48.158;-1.586;2023-06-24T15:33:56;5.30;;;2.60;;
61373;SDS011;47242;48.158;-1.586;2023-06-24T15:36:23;5.07;;;2.75;;
61373;SDS011;47242;48.158;-1.586;2023-06-24T15:38:51;5.05;;;2.53;;
61373;SDS011;47242;48.158;-1.586;2023-06-24T15:41:18;4.53;;;2.75;;
61373;SDS011;47242;48.158;-1.586;2023-06-24T15:43:43;3.67;;;2.35;;
61373;SDS011;47242;48.158;-1.586;2023-06-24T15:46:09;4.32;;;2.47;;
61373;SDS011;47242;48.158;-1.586;2023-06-24T15:48:37;4.82;;;2.47;;
61373;SDS011;47242;48.158;-1.586;2023-06-24T15:51:03;4.65;;;2.40;;
61373;SDS011;47242;48.158;-1.586;2023-06-24T15:53:29;4.53;;;2.55;;
61373;SDS011;47242;48.158;-1.586;2023-06-24T15:55:54;5.30;;;2.95;;
61373;SDS011;47242;48.158;-1.586;2023-06-24T15:58:20;4.93;;;2.78;;
61373;SDS011;47242;48.158;-1.586;2023-06-24T16:00:46;4.63;;;2.80;;
61373;SDS011;47242;48.158;-1.586;2023-06-24T16:03:11;5.22;;;2.53;;
61373;SDS011;47242;48.158;-1.586;2023-06-24T16:05:37;5.28;;;2.70;;
61373;SDS011;47242;48.158;-1.586;2023-06-24T16:08:03;5.85;;;2.97;;
61373;SDS011;47242;48.158;-1.586;2023-06-24T16:10:29;4.47;;;2.55;;
61373;SDS011;47242;48.158;-1.586;2023-06-24T16:12:54;4.70;;;3.00;;
61373;SDS011;47242;48.158;-1.586;2023-06-24T16:15:20;5.07;;;2.80;;
61373;SDS011;47242;48.158;-1.586;2023-06-24T16:17:46;5.47;;;2.85;;
61373;SDS011;47242;48.158;-1.586;2023-06-24T16:20:12;5.40;;;2.92;;
61373;SDS011;47242;48.158;-1.586;2023-06-24T16:22:41;5.40;;;2.70;;
61373;SDS011;47242;48.158;-1.586;2023-06-24T16:25:07;4.85;;;2.90;;
61373;SDS011;47242;48.158;-1.586;2023-06-24T16:27:33;4.90;;;3.03;;
61373;SDS011;47242;48.158;-1.586;2023-06-24T16:29:59;4.97;;;2.90;;
61373;SDS011;47242;48.158;-1.586;2023-06-24T16:32:25;4.63;;;2.60;;
61373;SDS011;47242;48.158;-1.586;2023-06-24T16:34:50;5.10;;;3.00;;
61373;SDS011;47242;48.158;-1.586;2023-06-24T16:37:16;5.18;;;2.53;;
61373;SDS011;47242;48.158;-1.586;2023-06-24T16:39:41;5.68;;;2.75;;
61373;SDS011;47242;48.158;-1.586;2023-06-24T16:42:07;5.20;;;2.90;;
61373;SDS011;47242;48.158;-1.586;2023-06-24T16:44:33;5.47;;;2.67;;
61373;SDS011;47242;48.158;-1.586;2023-06-24T16:47:02;6.40;;;3.20;;
61373;SDS011;47242;48.158;-1.586;2023-06-24T16:49:28;4.70;;;2.97;;
61373;SDS011;47242;48.158;-1.586;2023-06-24T16:51:54;4.57;;;2.40;;
61373;SDS011;47242;48.158;-1.586;2023-06-24T16:54:19;5.20;;;3.03;;
61373;SDS011;47242;48.158;-1.586;2023-06-24T16:56:46;5.30;;;2.92;;
61373;SDS011;47242;48.158;-1.586;2023-06-24T16:59:12;6.10;;;3.05;;
61373;SDS011;47242;48.158;-1.586;2023-06-24T17:01:38;4.93;;;2.95;;
61373;SDS011;47242;48.158;-1.586;2023-06-24T17:04:04;5.22;;;3.03;;
61373;SDS011;47242;48.158;-1.586;2023-06-24T17:06:30;6.05;;;2.95;;
61373;SDS011;47242;48.158;-1.586;2023-06-24T17:08:57;10.07;;;3.35;;
61373;SDS011;47242;48.158;-1.586;2023-06-24T17:11:23;5.38;;;3.38;;
61373;SDS011;47242;48.158;-1.586;2023-06-24T17:13:48;5.75;;;3.10;;
61373;SDS011;47242;48.158;-1.586;2023-06-24T17:16:14;5.95;;;3.05;;
61373;SDS011;47242;48.158;-1.586;2023-06-24T17:18:40;4.85;;;2.80;;
61373;SDS011;47242;48.158;-1.586;2023-06-24T17:21:06;5.20;;;2.92;;
61373;SDS011;47242;48.158;-1.586;2023-06-24T17:23:31;7.07;;;3.30;;
61373;SDS011;47242;48.158;-1.586;2023-06-24T17:25:57;5.18;;;3.08;;
61373;SDS011;47242;48.158;-1.586;2023-06-24T17:28:23;5.55;;;3.17;;
61373;SDS011;47242;48.158;-1.586;2023-06-24T17:30:48;5.40;;;3.40;;
61373;SDS011;47242;48.158;-1.586;2023-06-24T17:33:14;5.85;;;3.38;;
61373;SDS011;47242;48.158;-1.586;2023-06-24T17:35:40;5.95;;;3.30;;
61373;SDS011;47242;48.158;-1.586;2023-06-24T17:38:05;5.75;;;3.08;;
61373;SDS011;47242;48.158;-1.586;2023-06-24T17:40:31;6.03;;;3.00;;
61373;SDS011;47242;48.158;-1.586;2023-06-24T17:42:57;5.53;;;3.22;;
61373;SDS011;47242;48.158;-1.586;2023-06-24T17:45:22;7.55;;;4.70;;
61373;SDS011;47242;48.158;-1.586;2023-06-24T17:47:48;9.07;;;4.00;;
61373;SDS011;47242;48.158;-1.586;2023-06-24T17:50:17;5.85;;;3.13;;
61373;SDS011;47242;48.158;-1.586;2023-06-24T17:52:45;6.82;;;3.20;;
61373;SDS011;47242;48.158;-1.586;2023-06-24T17:55:11;5.55;;;2.75;;
61373;SDS011;47242;48.158;-1.586;2023-06-24T17:57:36;6.07;;;3.60;;
61373;SDS011;47242;48.158;-1.586;2023-06-24T18:00:02;5.38;;;3.28;;
61373;SDS011;47242;48.158;-1.586;2023-06-24T18:02:28;5.28;;;3.15;;
61373;SDS011;47242;48.158;-1.586;2023-06-24T18:04:54;5.25;;;2.83;;
61373;SDS011;47242;48.158;-1.586;2023-06-24T18:07:20;5.20;;;3.05;;
61373;SDS011;47242;48.158;-1.586;2023-06-24T18:09:46;5.30;;;3.13;;
61373;SDS011;47242;48.158;-1.586;2023-06-24T18:12:12;6.45;;;3.15;;
61373;SDS011;47242;48.158;-1.586;2023-06-24T18:14:38;7.25;;;4.15;;
61373;SDS011;47242;48.158;-1.586;2023-06-24T18:17:04;6.45;;;3.30;;
61373;SDS011;47242;48.158;-1.586;2023-06-24T18:19:29;5.13;;;3.40;;
61373;SDS011;47242;48.158;-1.586;2023-06-24T18:21:55;7.40;;;3.55;;
61373;SDS011;47242;48.158;-1.586;2023-06-24T18:24:21;4.60;;;2.95;;
61373;SDS011;47242;48.158;-1.586;2023-06-24T18:26:47;6.75;;;3.30;;
61373;SDS011;47242;48.158;-1.586;2023-06-24T18:29:12;5.15;;;2.92;;
61373;SDS011;47242;48.158;-1.586;2023-06-24T18:31:38;6.05;;;3.08;;
61373;SDS011;47242;48.158;-1.586;2023-06-24T18:34:07;5.50;;;3.03;;
61373;SDS011;47242;48.158;-1.586;2023-06-24T18:36:34;5.05;;;2.92;;
61373;SDS011;47242;48.158;-1.586;2023-06-24T18:39:00;5.28;;;2.97;;
61373;SDS011;47242;48.158;-1.586;2023-06-24T18:41:25;5.15;;;3.00;;
61373;SDS011;47242;48.158;-1.586;2023-06-24T18:43:52;5.32;;;3.10;;
61373;SDS011;47242;48.158;-1.586;2023-06-24T18:46:17;5.45;;;2.95;;
61373;SDS011;47242;48.158;-1.586;2023-06-24T18:48:43;5.30;;;3.08;;
61373;SDS011;47242;48.158;-1.586;2023-06-24T18:51:09;5.18;;;2.88;;
61373;SDS011;47242;48.158;-1.586;2023-06-24T18:53:35;5.18;;;3.03;;
61373;SDS011;47242;48.158;-1.586;2023-06-24T18:56:01;6.82;;;3.70;;
61373;SDS011;47242;48.158;-1.586;2023-06-24T18:58:28;5.78;;;3.05;;
61373;SDS011;47242;48.158;-1.586;2023-06-24T19:00:54;4.93;;;2.90;;
61373;SDS011;47242;48.158;-1.586;2023-06-24T19:03:20;4.80;;;2.72;;
61373;SDS011;47242;48.158;-1.586;2023-06-24T19:05:45;6.25;;;3.03;;
61373;SDS011;47242;48.158;-1.586;2023-06-24T19:08:11;5.72;;;3.17;;
61373;SDS011;47242;48.158;-1.586;2023-06-24T19:10:37;6.07;;;3.15;;
61373;SDS011;47242;48.158;-1.586;2023-06-24T19:13:02;5.15;;;2.90;;
61373;SDS011;47242;48.158;-1.586;2023-06-24T19:15:28;4.50;;;2.80;;
61373;SDS011;47242;48.158;-1.586;2023-06-24T19:17:54;5.75;;;3.30;;
61373;SDS011;47242;48.158;-1.586;2023-06-24T19:20:22;5.03;;;3.03;;